Cliff Island, Maine
Current Conditions -  °F | °C
As of 12:59 AM on Wednesday 22 Oct 2014 (Local Time) from KPWM Reporting Station
Moderate Rain Moderate Rain  
Wind Chill: 51°   Ceiling: 600
Heat Index: 51°   Visibility: 2mi
Dew Point: 48°   Wind: 14mph
Humidity: 89%   Direction: 30°NNE
Pressure: 30.05"   Gusts: NA
Location:  43.7°N, 70.11°W
Report Text: KPWM 220459Z AUTO 03012KT 2SM RA BR BKN006 OVC010 11/09 A3005 RMK AO2 P0005 T01060089
Loading
Personal Weather Stations






























Interactive Weather Map
Tropical Storm Tracking
New forecast layout! Learn more

10-Day Weather Forecast

Advertisements
Track Severe Weather on mobile